createdAt,value
2023-01-13T00:03:43.658Z,9.40
2023-01-13T00:08:56.311Z,7.22
2023-01-13T00:13:49.776Z,11.18
2023-01-13T00:18:43.982Z,6.30
2023-01-13T00:23:37.090Z,7.72
2023-01-13T00:28:30.625Z,6.57
2023-01-13T00:33:24.164Z,6.05
2023-01-13T00:38:17.739Z,6.03
2023-01-13T00:43:23.199Z,6.82
2023-01-13T00:48:18.671Z,6.82
2023-01-13T00:53:11.811Z,7.05
2023-01-13T00:58:06.014Z,6.68
2023-01-13T01:02:59.521Z,7.55
2023-01-13T01:07:53.938Z,7.32
2023-01-13T01:12:47.986Z,6.30
2023-01-13T01:17:41.909Z,6.00
2023-01-13T01:22:35.265Z,5.90
2023-01-13T01:27:28.927Z,5.93
2023-01-13T01:32:22.433Z,5.90
2023-01-13T01:37:16.689Z,7.22
2023-01-13T01:42:37.542Z,5.82
2023-01-13T01:47:32.795Z,5.03
2023-01-13T01:52:34.075Z,7.13
2023-01-13T01:57:50.393Z,5.18
2023-01-13T02:02:47.549Z,6.13
2023-01-13T02:07:44.236Z,5.97
2023-01-13T02:12:39.248Z,6.93
2023-01-13T02:17:51.943Z,6.82
2023-01-13T02:23:36.275Z,4.18
2023-01-13T02:29:18.607Z,5.15
2023-01-13T02:34:15.343Z,4.82
2023-01-13T02:39:16.846Z,7.35
2023-01-13T02:44:12.858Z,4.00
2023-01-13T02:49:11.801Z,4.82
2023-01-13T02:54:16.864Z,4.60
2023-01-13T02:59:11.901Z,6.35
2023-01-13T03:04:17.100Z,4.00
2023-01-13T03:09:10.412Z,3.65
2023-01-13T03:14:41.153Z,4.22
2023-01-13T03:19:45.696Z,4.05
2023-01-13T03:25:08.977Z,4.50
2023-01-13T03:30:20.996Z,4.25
2023-01-13T03:35:39.430Z,3.63
2023-01-13T03:40:41.039Z,4.57
2023-01-13T03:45:40.861Z,4.53
2023-01-13T03:50:42.201Z,4.32
2023-01-13T03:55:39.687Z,3.50
2023-01-13T04:00:46.057Z,4.13
2023-01-13T04:05:48.002Z,3.88
2023-01-13T04:10:54.373Z,3.70
2023-01-13T04:15:49.464Z,6.20
2023-01-13T04:20:44.241Z,4.50
2023-01-13T04:25:41.279Z,3.35
2023-01-13T04:30:34.526Z,3.33
2023-01-13T04:35:27.980Z,5.10
2023-01-13T04:40:21.831Z,3.78
2023-01-13T04:45:15.542Z,3.92
2023-01-13T04:50:12.478Z,3.60
2023-01-13T04:55:07.483Z,2.97
2023-01-13T05:00:00.702Z,3.72
2023-01-13T05:04:54.848Z,2.60
2023-01-13T05:09:51.107Z,3.33
2023-01-13T05:15:03.425Z,3.65
2023-01-13T05:19:57.480Z,3.63
2023-01-13T05:25:09.177Z,3.45
2023-01-13T05:30:04.092Z,6.78
2023-01-13T05:34:57.448Z,7.93
2023-01-13T05:40:09.529Z,6.55
2023-01-13T05:45:03.811Z,6.50
2023-01-13T05:49:57.233Z,12.25
2023-01-13T05:54:51.125Z,7.50
2023-01-13T05:59:45.294Z,8.00
2023-01-13T06:04:38.183Z,7.13
2023-01-13T06:09:31.533Z,6.05
2023-01-13T06:14:24.365Z,7.20
2023-01-13T06:19:18.412Z,6.43
2023-01-13T06:24:12.310Z,8.65
2023-01-13T06:29:05.941Z,5.40
2023-01-13T06:34:05.321Z,6.50
2023-01-13T06:39:02.480Z,12.50
2023-01-13T06:43:55.803Z,5.22
2023-01-13T06:48:49.919Z,6.20
2023-01-13T06:53:43.987Z,5.53
2023-01-13T06:58:37.351Z,8.48
2023-01-13T07:03:31.173Z,6.03
2023-01-13T07:08:26.005Z,4.55
2023-01-13T07:13:37.670Z,10.60
2023-01-13T07:18:32.683Z,5.43
2023-01-13T07:23:28.713Z,8.93
2023-01-13T07:28:22.317Z,5.28
2023-01-13T07:33:16.810Z,4.97
2023-01-13T07:38:10.921Z,8.05
2023-01-13T07:43:22.516Z,5.22
2023-01-13T07:48:15.672Z,14.32
2023-01-13T07:53:08.724Z,5.85
2023-01-13T07:58:02.409Z,8.60
2023-01-13T08:02:55.647Z,6.65
2023-01-13T08:07:49.260Z,5.65
2023-01-13T08:13:01.329Z,6.00
2023-01-13T08:17:54.857Z,5.85
2023-01-13T08:22:48.588Z,9.25
2023-01-13T08:27:42.084Z,6.13
2023-01-13T08:32:36.344Z,6.00
2023-01-13T08:37:30.135Z,4.13
2023-01-13T08:42:24.000Z,4.35
2023-01-13T08:47:17.263Z,5.82
2023-01-13T08:52:10.579Z,4.65
2023-01-13T08:57:03.909Z,3.30
2023-01-13T09:01:57.481Z,5.57
2023-01-13T09:06:50.695Z,4.60
2023-01-13T09:12:05.357Z,5.97
2023-01-13T09:16:59.204Z,4.50
2023-01-13T09:21:53.323Z,5.57
2023-01-13T09:26:47.015Z,3.13
2023-01-13T09:31:41.271Z,4.80
2023-01-13T09:36:35.536Z,2.78
2023-01-13T09:41:50.221Z,7.05
2023-01-13T09:46:53.015Z,4.40
2023-01-13T09:52:08.036Z,6.35
2023-01-13T09:57:01.941Z,9.02
2023-01-13T10:02:03.338Z,6.20
2023-01-13T10:07:02.157Z,9.48
2023-01-13T10:12:17.524Z,8.95
2023-01-13T10:17:39.745Z,11.55
2023-01-13T10:22:49.938Z,6.47
2023-01-13T10:28:04.647Z,6.80
2023-01-13T10:33:28.769Z,8.18
2023-01-13T10:38:45.618Z,9.40
2023-01-13T10:43:39.858Z,9.68
2023-01-13T10:48:44.066Z,13.60
2023-01-13T10:53:47.008Z,10.95
2023-01-13T10:59:18.908Z,8.88
2023-01-13T11:04:54.773Z,14.40
2023-01-13T11:09:48.791Z,13.50
2023-01-13T11:14:45.800Z,11.70
2023-01-13T11:19:44.221Z,12.60
2023-01-13T11:24:48.395Z,13.05
2023-01-13T11:30:00.281Z,13.77
2023-01-13T11:35:00.172Z,12.73
2023-01-13T11:40:04.361Z,12.88
2023-01-13T11:45:03.690Z,10.88
2023-01-13T11:49:57.675Z,10.45
2023-01-13T11:55:01.194Z,10.48
2023-01-13T12:00:21.233Z,11.50
2023-01-13T12:05:30.074Z,9.73
2023-01-13T12:10:36.021Z,15.50
2023-01-13T12:16:00.256Z,11.70
2023-01-13T12:21:06.330Z,10.48
2023-01-13T12:26:07.632Z,10.95
2023-01-13T12:31:03.250Z,13.20
2023-01-13T12:36:25.779Z,10.20
2023-01-13T12:41:37.467Z,8.95
2023-01-13T12:46:30.426Z,10.50
2023-01-13T12:51:41.013Z,11.20
2023-01-13T12:56:42.737Z,10.83
2023-01-13T13:01:38.010Z,8.70
2023-01-13T13:06:32.282Z,6.78
2023-01-13T13:12:03.605Z,7.03
2023-01-13T13:16:57.692Z,8.63
2023-01-13T13:22:12.253Z,9.07
2023-01-13T13:27:19.292Z,13.43
2023-01-13T13:32:26.887Z,14.45
2023-01-13T13:38:17.173Z,11.07
2023-01-13T13:43:32.965Z,7.37
2023-01-13T13:48:34.347Z,7.88
2023-01-13T13:53:32.308Z,9.95
2023-01-13T13:58:26.785Z,7.85
2023-01-13T14:03:29.837Z,8.93
2023-01-13T14:08:24.020Z,15.82
2023-01-13T14:13:21.613Z,6.07
2023-01-13T14:18:22.568Z,8.65
2023-01-13T14:23:20.738Z,11.48
2023-01-13T14:28:13.947Z,8.48
2023-01-13T14:33:27.069Z,7.60
2023-01-13T14:38:40.294Z,9.90
2023-01-13T14:43:34.185Z,9.07
2023-01-13T14:48:36.589Z,10.82
2023-01-13T14:54:00.044Z,7.95
2023-01-13T14:59:03.397Z,6.53
2023-01-13T15:04:18.042Z,6.05
2023-01-13T15:09:14.578Z,5.70
2023-01-13T15:14:12.019Z,9.52
2023-01-13T15:19:05.380Z,8.38
2023-01-13T15:24:00.616Z,6.05
2023-01-13T15:28:56.236Z,7.45
2023-01-13T15:33:49.970Z,5.97
2023-01-13T15:38:43.064Z,7.55
2023-01-13T15:43:55.232Z,5.25
2023-01-13T15:48:53.079Z,6.43
2023-01-13T15:53:48.334Z,5.90
2023-01-13T15:58:42.500Z,6.38
2023-01-13T16:03:36.316Z,5.38
2023-01-13T16:08:31.795Z,8.18
2023-01-13T16:13:25.305Z,6.07
2023-01-13T16:18:22.792Z,5.30
2023-01-13T16:23:16.777Z,6.53
2023-01-13T16:28:24.794Z,5.78
2023-01-13T16:33:18.132Z,5.80
2023-01-13T16:38:18.760Z,5.93
2023-01-13T16:43:15.853Z,5.90
2023-01-13T16:48:20.191Z,6.82
2023-01-13T16:53:13.265Z,6.50
2023-01-13T16:58:08.005Z,6.47
2023-01-13T17:03:03.369Z,6.82
2023-01-13T17:07:57.797Z,8.32
2023-01-13T17:12:50.961Z,7.60
2023-01-13T17:17:48.201Z,8.57
2023-01-13T17:22:45.653Z,9.18
2023-01-13T17:27:41.859Z,8.32
2023-01-13T17:32:35.884Z,9.32
2023-01-13T17:37:30.058Z,7.47
2023-01-13T17:42:24.121Z,6.07
2023-01-13T17:47:18.596Z,9.75
2023-01-13T17:52:12.409Z,13.05
2023-01-13T17:57:05.625Z,9.48
2023-01-13T18:02:00.171Z,8.50
2023-01-13T18:06:53.847Z,9.32
2023-01-13T18:11:47.489Z,11.77
2023-01-13T18:16:41.312Z,9.93
2023-01-13T18:21:52.504Z,10.73
2023-01-13T18:27:04.006Z,11.25
2023-01-13T18:31:58.183Z,11.05
2023-01-13T18:36:50.991Z,10.48
2023-01-13T18:42:02.571Z,8.77
2023-01-13T18:46:55.675Z,9.50
2023-01-13T18:51:50.041Z,19.10
2023-01-13T18:56:44.104Z,28.63
2023-01-13T19:01:38.485Z,37.67
2023-01-13T19:06:33.871Z,33.78
2023-01-13T19:11:27.491Z,36.55
2023-01-13T19:16:24.619Z,32.33
2023-01-13T19:21:18.571Z,30.58
2023-01-13T19:26:13.154Z,25.73
2023-01-13T19:31:07.783Z,25.55
2023-01-13T19:36:02.069Z,20.77
2023-01-13T19:41:03.952Z,29.73
2023-01-13T19:45:57.708Z,21.75
2023-01-13T19:50:50.963Z,19.85
2023-01-13T19:55:46.476Z,19.55
2023-01-13T20:00:47.557Z,21.42
2023-01-13T20:05:40.983Z,24.52
2023-01-13T20:10:34.877Z,20.13
2023-01-13T20:15:29.104Z,27.17
2023-01-13T20:20:22.604Z,26.65
2023-01-13T20:25:18.065Z,26.35
2023-01-13T20:30:14.689Z,17.42
2023-01-13T20:35:26.990Z,25.33
2023-01-13T20:40:21.053Z,27.83
2023-01-13T20:45:21.590Z,24.45
2023-01-13T20:50:17.381Z,17.65
2023-01-13T20:55:11.103Z,20.77
2023-01-13T21:00:05.807Z,19.77
2023-01-13T21:04:59.942Z,20.23
2023-01-13T21:09:53.583Z,16.80
2023-01-13T21:15:04.553Z,17.65
2023-01-13T21:19:58.586Z,18.42
2023-01-13T21:24:52.876Z,18.65
2023-01-13T21:29:46.955Z,16.90
2023-01-13T21:34:40.948Z,18.02
2023-01-13T21:39:34.899Z,18.75
2023-01-13T21:44:45.451Z,15.30
2023-01-13T21:54:58.116Z,13.55
2023-01-13T21:59:51.467Z,14.65
2023-01-13T22:04:53.064Z,21.83
2023-01-13T22:09:47.145Z,23.00
2023-01-13T22:14:41.373Z,15.95
2023-01-13T22:19:39.592Z,13.45
2023-01-13T22:24:32.909Z,13.82
2023-01-13T22:29:25.830Z,11.88
2023-01-13T22:34:19.789Z,11.93
2023-01-13T22:39:13.564Z,14.65
2023-01-13T22:44:07.338Z,12.85
2023-01-13T22:49:00.779Z,11.95
2023-01-13T22:53:55.084Z,12.82
2023-01-13T22:58:49.544Z,14.38
2023-01-13T23:03:43.070Z,12.32
2023-01-13T23:08:36.635Z,11.65
2023-01-13T23:13:29.869Z,12.63
2023-01-13T23:18:26.480Z,10.80
2023-01-13T23:23:21.031Z,12.38
2023-01-13T23:28:14.796Z,13.30
2023-01-13T23:33:08.032Z,8.77
2023-01-13T23:38:01.951Z,10.27
2023-01-13T23:42:55.685Z,11.63
2023-01-13T23:47:48.816Z,7.95
2023-01-13T23:52:41.810Z,8.43
2023-01-13T23:57:35.711Z,9.98
